Time;durP1;ratioP1;P1;durP2;ratioP2;P2;SDS_P1;SDS_P2;PMS_P1;PMS_P2;Temp;Humidity;BMP_temperature;BMP_pressure;BME280_temperature;BME280_humidity;BME280_pressure;Samples;Min_cycle;Max_cycle;Signal;HPM_P1;HPM_P2
2023/07/16 00:01:28;;;;;;;2.75;1.35;;;;;;;;;;5073364;28;20368;-84
2023/07/16 00:03:53;;;;;;;1.60;1.17;;;;;;;;;;5072095;28;20032;-85
2023/07/16 00:06:19;;;;;;;5.75;1.50;;;;;;;;;;5072816;28;20429;-85
2023/07/16 00:08:44;;;;;;;3.53;1.38;;;;;;;;;;5073698;28;20538;-85
2023/07/16 00:11:10;;;;;;;4.28;1.30;;;;;;;;;;5055848;28;20050;-84
2023/07/16 00:13:36;;;;;;;2.30;1.38;;;;;;;;;;5073157;28;20037;-84
2023/07/16 00:16:01;;;;;;;2.45;1.20;;;;;;;;;;5073705;28;20043;-83
2023/07/16 00:18:27;;;;;;;3.15;1.38;;;;;;;;;;5074075;28;20036;-84
2023/07/16 00:20:52;;;;;;;2.00;1.17;;;;;;;;;;5056079;28;20027;-83
2023/07/16 00:23:17;;;;;;;3.25;1.20;;;;;;;;;;5073673;28;20119;-81
2023/07/16 00:25:43;;;;;;;2.40;1.20;;;;;;;;;;5072105;28;20517;-81
2023/07/16 00:28:08;;;;;;;3.03;1.75;;;;;;;;;;5055045;28;20039;-84
2023/07/16 00:30:33;;;;;;;4.20;1.67;;;;;;;;;;5071898;28;20028;-85
2023/07/16 00:32:59;;;;;;;2.30;1.20;;;;;;;;;;5072718;28;20403;-86
2023/07/16 00:35:24;;;;;;;2.83;1.17;;;;;;;;;;5072219;28;20029;-83
2023/07/16 00:37:49;;;;;;;3.58;1.20;;;;;;;;;;5072918;28;20032;-85
2023/07/16 00:40:15;;;;;;;1.77;1.40;;;;;;;;;;5071815;28;20047;-85
2023/07/16 00:42:40;;;;;;;2.53;1.33;;;;;;;;;;5072246;28;20097;-86
2023/07/16 00:45:10;;;;;;;3.03;1.23;;;;;;;;;;5071912;28;20502;-86
2023/07/16 00:47:35;;;;;;;2.95;1.45;;;;;;;;;;5071833;28;20415;-86
2023/07/16 00:50:01;;;;;;;2.42;1.30;;;;;;;;;;5055256;28;20062;-86
2023/07/16 00:52:28;;;;;;;2.33;1.38;;;;;;;;;;5073071;28;20040;-87
2023/07/16 00:54:53;;;;;;;2.65;1.40;;;;;;;;;;5076215;28;20028;-86
2023/07/16 00:57:19;;;;;;;4.35;1.20;;;;;;;;;;5078260;28;20468;-86
2023/07/16 00:59:44;;;;;;;4.32;1.60;;;;;;;;;;5093452;28;20028;-86
2023/07/16 01:02:10;;;;;;;15.55;1.60;;;;;;;;;;5077712;28;20051;-86
2023/07/16 01:04:35;;;;;;;3.75;1.45;;;;;;;;;;5075753;28;20031;-86
2023/07/16 01:07:05;;;;;;;4.35;1.40;;;;;;;;;;5076703;28;20390;-86
2023/07/16 01:09:31;;;;;;;2.90;1.52;;;;;;;;;;5075544;28;20059;-86
2023/07/16 01:11:58;;;;;;;2.45;1.30;;;;;;;;;;5075472;28;20448;-86
2023/07/16 01:14:23;;;;;;;2.38;1.60;;;;;;;;;;5078136;28;20502;-86
2023/07/16 01:16:48;;;;;;;4.07;1.42;;;;;;;;;;5078012;28;20037;-86
2023/07/16 01:19:14;;;;;;;2.53;1.30;;;;;;;;;;5060730;28;20041;-86
2023/07/16 01:21:45;;;;;;;3.97;1.70;;;;;;;;;;5078822;28;20523;-86
2023/07/16 01:24:14;;;;;;;2.38;1.83;;;;;;;;;;5076214;28;20033;-85
2023/07/16 01:26:56;;;;;;;2.08;1.30;;;;;;;;;;5077749;28;20039;-86
2023/07/16 01:29:51;;;;;;;6.97;1.65;;;;;;;;;;5075186;28;20107;-86
2023/07/16 01:32:17;;;;;;;1.98;1.20;;;;;;;;;;5074989;28;20024;-86
2023/07/16 01:34:42;;;;;;;5.63;1.35;;;;;;;;;;5074899;28;20498;-87
2023/07/16 01:37:08;;;;;;;3.67;1.48;;;;;;;;;;5075698;28;20024;-85
2023/07/16 01:39:34;;;;;;;2.42;1.48;;;;;;;;;;5075358;28;20036;-86
2023/07/16 01:41:59;;;;;;;2.40;1.40;;;;;;;;;;5077145;28;20024;-86
2023/07/16 01:44:25;;;;;;;2.55;1.40;;;;;;;;;;5077418;28;20029;-86
2023/07/16 01:47:17;;;;;;;2.22;1.40;;;;;;;;;;5077366;28;20395;-86
2023/07/16 01:49:43;;;;;;;3.33;1.80;;;;;;;;;;5075291;28;20028;-86
2023/07/16 01:52:09;;;;;;;1.83;1.50;;;;;;;;;;5041208;28;20051;-86
2023/07/16 01:54:34;;;;;;;3.20;1.40;;;;;;;;;;5058196;28;20033;-86
2023/07/16 01:57:00;;;;;;;2.30;1.42;;;;;;;;;;5058062;28;20052;-86
2023/07/16 01:59:25;;;;;;;3.03;2.03;;;;;;;;;;5075635;28;20158;-86
2023/07/16 02:01:51;;;;;;;2.90;1.40;;;;;;;;;;5076269;28;20449;-86
2023/07/16 02:04:16;;;;;;;2.45;1.50;;;;;;;;;;5073966;28;20043;-86
2023/07/16 02:06:41;;;;;;;6.32;1.15;;;;;;;;;;5075399;28;20035;-86
2023/07/16 02:09:08;;;;;;;2.22;1.33;;;;;;;;;;5057357;28;20498;-86
2023/07/16 02:11:33;;;;;;;2.53;1.45;;;;;;;;;;5075228;28;20028;-86
2023/07/16 02:13:59;;;;;;;3.00;1.70;;;;;;;;;;5074276;28;20039;-87
2023/07/16 02:16:24;;;;;;;4.20;2.15;;;;;;;;;;5056996;28;20036;-86
2023/07/16 02:18:49;;;;;;;2.15;1.55;;;;;;;;;;5075321;28;20032;-86
2023/07/16 02:21:15;;;;;;;2.25;1.63;;;;;;;;;;5075502;28;20062;-86
2023/07/16 02:23:40;;;;;;;2.85;1.38;;;;;;;;;;5075305;28;20078;-86
2023/07/16 02:26:05;;;;;;;2.03;1.20;;;;;;;;;;5073833;28;20471;-86
2023/07/16 02:28:31;;;;;;;4.13;1.88;;;;;;;;;;5075169;28;20069;-86
2023/07/16 02:30:58;;;;;;;3.15;1.55;;;;;;;;;;5075669;28;20046;-86
2023/07/16 02:33:23;;;;;;;4.07;2.00;;;;;;;;;;5074639;28;20032;-86
2023/07/16 02:35:51;;;;;;;2.28;1.52;;;;;;;;;;5073753;28;20036;-85
2023/07/16 02:38:17;;;;;;;11.63;1.90;;;;;;;;;;5073845;28;20107;-86
2023/07/16 02:40:44;;;;;;;4.15;1.60;;;;;;;;;;5073857;28;20077;-86
2023/07/16 02:43:09;;;;;;;2.45;1.40;;;;;;;;;;5074607;28;20029;-85
2023/07/16 02:45:34;;;;;;;1.85;1.58;;;;;;;;;;5075175;28;20032;-86
2023/07/16 02:48:00;;;;;;;2.92;1.65;;;;;;;;;;5075259;28;20036;-86
2023/07/16 02:50:25;;;;;;;5.35;2.42;;;;;;;;;;5075630;28;20123;-85
2023/07/16 02:52:50;;;;;;;3.30;1.52;;;;;;;;;;5074086;28;20110;-85
2023/07/16 02:55:16;;;;;;;4.18;1.42;;;;;;;;;;5074760;28;20578;-85
2023/07/16 02:57:41;;;;;;;3.70;1.60;;;;;;;;;;5074397;28;20040;-86
2023/07/16 03:00:07;;;;;;;3.63;1.77;;;;;;;;;;5056894;28;20059;-86
2023/07/16 03:02:33;;;;;;;9.10;1.42;;;;;;;;;;5074449;28;20025;-86
2023/07/16 03:04:58;;;;;;;2.85;1.83;;;;;;;;;;5073197;28;20467;-87
2023/07/16 03:07:23;;;;;;;6.75;1.88;;;;;;;;;;5074033;28;20031;-86
2023/07/16 03:09:49;;;;;;;3.40;1.40;;;;;;;;;;5074238;28;20028;-86
2023/07/16 03:12:14;;;;;;;4.65;1.80;;;;;;;;;;5072773;28;20032;-86
2023/07/16 03:14:40;;;;;;;2.70;1.60;;;;;;;;;;5074716;28;20056;-86
2023/07/16 03:17:06;;;;;;;4.05;1.65;;;;;;;;;;5055890;28;20119;-86
2023/07/16 03:19:32;;;;;;;3.92;1.63;;;;;;;;;;5056122;28;20040;-86
2023/07/16 03:21:57;;;;;;;2.97;1.63;;;;;;;;;;5073107;28;20028;-86
2023/07/16 03:24:23;;;;;;;2.38;1.65;;;;;;;;;;5072606;28;20078;-86
2023/07/16 03:26:48;;;;;;;4.85;1.83;;;;;;;;;;5073783;28;20036;-86
2023/07/16 03:29:13;;;;;;;3.33;1.80;;;;;;;;;;5073884;28;20025;-86
2023/07/16 03:31:39;;;;;;;3.35;1.77;;;;;;;;;;5073632;28;20491;-87
2023/07/16 03:34:04;;;;;;;3.88;1.80;;;;;;;;;;5055363;28;20054;-86
2023/07/16 03:36:30;;;;;;;2.63;1.70;;;;;;;;;;5074085;28;20032;-86
2023/07/16 03:38:55;;;;;;;3.08;1.80;;;;;;;;;;5073575;28;20467;-86
2023/07/16 03:41:20;;;;;;;4.03;1.65;;;;;;;;;;5072376;28;20034;-87
2023/07/16 03:43:46;;;;;;;5.25;1.67;;;;;;;;;;5072310;28;20028;-87
2023/07/16 03:46:11;;;;;;;2.45;1.60;;;;;;;;;;5055428;28;20094;-87
2023/07/16 03:48:36;;;;;;;3.58;1.60;;;;;;;;;;5073309;28;20029;-85
2023/07/16 03:51:02;;;;;;;1.40;1.30;;;;;;;;;;5074246;28;20044;-85
2023/07/16 03:53:27;;;;;;;4.30;1.75;;;;;;;;;;5064955;28;20452;-86
2023/07/16 03:55:53;;;;;;;4.35;2.10;;;;;;;;;;5055252;28;20041;-86
2023/07/16 03:58:18;;;;;;;5.03;1.60;;;;;;;;;;5072043;28;20099;-87
2023/07/16 04:00:44;;;;;;;4.30;1.80;;;;;;;;;;5072134;28;20078;-88
2023/07/16 04:03:09;;;;;;;4.55;1.70;;;;;;;;;;5072173;28;20462;-88
2023/07/16 04:05:35;;;;;;;3.10;1.80;;;;;;;;;;5072300;28;20104;-86
2023/07/16 04:08:00;;;;;;;3.88;1.55;;;;;;;;;;5071954;28;20028;-86
2023/07/16 04:10:25;;;;;;;2.75;1.83;;;;;;;;;;5071707;28;20039;-85
2023/07/16 04:12:51;;;;;;;3.28;1.50;;;;;;;;;;5072014;28;20056;-85
2023/07/16 04:15:16;;;;;;;2.42;1.70;;;;;;;;;;5055196;28;20029;-85
2023/07/16 04:17:42;;;;;;;5.53;1.90;;;;;;;;;;5073223;28;20028;-85
2023/07/16 04:20:08;;;;;;;2.58;1.55;;;;;;;;;;5073592;28;20070;-84
2023/07/16 04:22:36;;;;;;;4.10;1.85;;;;;;;;;;5071896;28;20036;-84
2023/07/16 04:25:02;;;;;;;5.22;1.70;;;;;;;;;;5073374;28;20033;-85
2023/07/16 04:27:27;;;;;;;2.42;1.60;;;;;;;;;;5072749;28;20376;-85
2023/07/16 04:29:53;;;;;;;3.83;1.83;;;;;;;;;;5075978;28;20364;-84
2023/07/16 04:32:18;;;;;;;3.80;1.70;;;;;;;;;;5075749;28;20029;-84
2023/07/16 04:34:44;;;;;;;3.78;1.55;;;;;;;;;;5076961;28;20028;-85
2023/07/16 04:37:09;;;;;;;2.25;1.45;;;;;;;;;;5076023;28;20112;-84
2023/07/16 04:39:34;;;;;;;3.13;1.63;;;;;;;;;;5075540;28;20032;-84
2023/07/16 04:42:00;;;;;;;3.03;1.90;;;;;;;;;;5077134;28;20052;-84
2023/07/16 04:44:25;;;;;;;3.17;1.52;;;;;;;;;;5075838;28;20055;-84
2023/07/16 04:46:50;;;;;;;2.55;1.80;;;;;;;;;;5076797;28;20391;-84
2023/07/16 04:49:16;;;;;;;3.17;1.83;;;;;;;;;;5077021;28;20036;-83
2023/07/16 04:51:41;;;;;;;2.10;1.52;;;;;;;;;;5076624;28;20502;-83
2023/07/16 04:54:06;;;;;;;3.85;1.98;;;;;;;;;;5075383;28;20053;-84
2023/07/16 04:56:32;;;;;;;3.70;2.00;;;;;;;;;;5076805;28;20399;-84
2023/07/16 04:58:57;;;;;;;2.67;1.60;;;;;;;;;;5075166;28;20037;-84
2023/07/16 05:01:23;;;;;;;3.17;1.98;;;;;;;;;;5058624;28;20028;-85
2023/07/16 05:03:48;;;;;;;2.47;1.67;;;;;;;;;;5075295;28;20078;-85
2023/07/16 05:06:13;;;;;;;3.00;1.60;;;;;;;;;;5075446;28;20434;-84
2023/07/16 05:08:39;;;;;;;5.43;1.80;;;;;;;;;;5075386;28;20103;-85
2023/07/16 05:11:04;;;;;;;3.13;1.75;;;;;;;;;;5058219;28;20533;-84
2023/07/16 05:13:30;;;;;;;3.33;1.80;;;;;;;;;;5076500;28;20032;-84
2023/07/16 05:15:55;;;;;;;2.92;1.90;;;;;;;;;;5076124;28;20070;-85
2023/07/16 05:18:21;;;;;;;4.78;1.90;;;;;;;;;;5076417;28;20037;-85
2023/07/16 05:20:50;;;;;;;3.78;2.00;;;;;;;;;;5058361;28;20127;-86
2023/07/16 05:23:15;;;;;;;3.97;1.95;;;;;;;;;;5058310;28;20021;-85
2023/07/16 05:25:48;;;;;;;3.28;1.90;;;;;;;;;;5075172;28;20040;-84
2023/07/16 05:28:17;;;;;;;5.28;2.15;;;;;;;;;;5074748;28;20028;-83
2023/07/16 05:30:42;;;;;;;3.83;2.20;;;;;;;;;;5076060;28;20391;-85
2023/07/16 05:33:09;;;;;;;2.75;1.73;;;;;;;;;;5074894;28;20029;-84
2023/07/16 05:35:35;;;;;;;7.38;2.13;;;;;;;;;;5074859;28;20032;-86
2023/07/16 05:38:00;;;;;;;2.67;1.90;;;;;;;;;;5075669;28;20039;-81
2023/07/16 05:40:25;;;;;;;6.95;2.00;;;;;;;;;;5073507;28;20032;-84
2023/07/16 05:42:51;;;;;;;2.63;1.80;;;;;;;;;;5074809;28;20425;-79
2023/07/16 05:45:16;;;;;;;4.55;2.10;;;;;;;;;;5075813;28;20034;-84
2023/07/16 05:47:41;;;;;;;4.15;2.15;;;;;;;;;;5075671;28;20036;-81
2023/07/16 05:50:07;;;;;;;4.82;2.25;;;;;;;;;;5075774;28;20067;-85
2023/07/16 05:52:33;;;;;;;5.97;2.00;;;;;;;;;;5075163;28;20078;-84
2023/07/16 05:54:58;;;;;;;7.00;3.00;;;;;;;;;;5075247;28;20384;-84
2023/07/16 05:57:23;;;;;;;3.70;2.60;;;;;;;;;;5074214;28;20032;-84
2023/07/16 05:59:49;;;;;;;2.75;2.05;;;;;;;;;;5075234;28;20500;-85
2023/07/16 06:02:14;;;;;;;4.75;2.00;;;;;;;;;;5074218;28;20020;-84
2023/07/16 06:04:40;;;;;;;8.25;2.22;;;;;;;;;;5073945;28;20444;-82
2023/07/16 06:07:05;;;;;;;9.85;2.28;;;;;;;;;;5057097;28;20020;-82
2023/07/16 06:09:31;;;;;;;5.45;2.55;;;;;;;;;;5075375;28;20399;-84
2023/07/16 06:11:56;;;;;;;4.93;2.40;;;;;;;;;;5075259;28;20135;-84
2023/07/16 06:14:22;;;;;;;4.43;2.58;;;;;;;;;;5108081;28;20039;-83
2023/07/16 06:16:47;;;;;;;6.82;2.15;;;;;;;;;;5074768;28;20101;-80
2023/07/16 06:19:12;;;;;;;5.13;2.53;;;;;;;;;;5107300;28;20032;-84
2023/07/16 06:21:38;;;;;;;2.85;1.95;;;;;;;;;;5073662;28;20020;-87
2023/07/16 06:24:03;;;;;;;5.55;1.98;;;;;;;;;;5075235;28;20115;-86
2023/07/16 06:26:29;;;;;;;3.60;1.95;;;;;;;;;;5074798;28;20484;-87
2023/07/16 06:28:54;;;;;;;7.18;2.53;;;;;;;;;;5074828;28;20025;-84
2023/07/16 06:31:19;;;;;;;3.03;2.10;;;;;;;;;;5090153;28;20029;-85
2023/07/16 06:33:49;;;;;;;4.45;2.40;;;;;;;;;;5074894;28;20032;-86
2023/07/16 06:36:14;;;;;;;10.10;2.40;;;;;;;;;;5090026;28;20028;-84
2023/07/16 06:38:40;;;;;;;3.60;2.15;;;;;;;;;;5073518;28;20037;-83
2023/07/16 06:41:06;;;;;;;3.90;2.38;;;;;;;;;;5074460;28;20024;-81
2023/07/16 06:43:31;;;;;;;3.53;2.35;;;;;;;;;;5073517;28;20043;-82
2023/07/16 06:45:56;;;;;;;4.15;2.50;;;;;;;;;;5074274;28;20025;-88
2023/07/16 06:48:22;;;;;;;5.55;2.17;;;;;;;;;;5074813;28;20040;-84
2023/07/16 06:50:48;;;;;;;5.30;2.10;;;;;;;;;;5074306;28;20033;-81
2023/07/16 06:53:13;;;;;;;5.35;2.50;;;;;;;;;;5089714;28;20479;-82
2023/07/16 06:55:39;;;;;;;6.22;2.35;;;;;;;;;;5073365;28;20052;-82
2023/07/16 06:58:04;;;;;;;4.10;2.00;;;;;;;;;;5074443;28;20360;-79
2023/07/16 07:00:30;;;;;;;6.68;2.47;;;;;;;;;;5074332;28;20085;-83
2023/07/16 07:02:55;;;;;;;5.60;2.58;;;;;;;;;;5073435;28;20082;-85
2023/07/16 07:05:21;;;;;;;5.43;2.63;;;;;;;;;;5073330;28;20036;-85
2023/07/16 07:07:47;;;;;;;6.57;2.70;;;;;;;;;;5072959;28;20038;-83
2023/07/16 07:10:13;;;;;;;6.85;2.65;;;;;;;;;;5056300;28;20462;-86
2023/07/16 07:12:38;;;;;;;5.00;2.63;;;;;;;;;;5056162;28;20020;-86
2023/07/16 07:15:08;;;;;;;5.90;2.55;;;;;;;;;;5056215;28;20033;-85
2023/07/16 07:17:34;;;;;;;5.07;2.38;;;;;;;;;;5056014;28;20467;-85
2023/07/16 07:20:01;;;;;;;6.05;2.13;;;;;;;;;;5075317;28;20025;-86
2023/07/16 07:22:26;;;;;;;9.73;2.88;;;;;;;;;;5093756;28;20471;-85
2023/07/16 07:24:51;;;;;;;4.55;2.47;;;;;;;;;;5075427;28;20040;-85
2023/07/16 07:27:17;;;;;;;5.97;2.40;;;;;;;;;;5072870;28;20098;-87
2023/07/16 07:29:42;;;;;;;4.93;2.20;;;;;;;;;;5089321;28;20029;-85
2023/07/16 07:32:08;;;;;;;6.07;2.50;;;;;;;;;;5073896;28;20025;-86
2023/07/16 07:34:33;;;;;;;3.50;2.30;;;;;;;;;;5072842;28;20489;-86
2023/07/16 07:36:58;;;;;;;5.20;2.53;;;;;;;;;;5106202;28;20068;-86
2023/07/16 07:39:24;;;;;;;3.55;2.60;;;;;;;;;;5073528;28;20035;-86
2023/07/16 07:41:49;;;;;;;3.33;2.35;;;;;;;;;;5055592;28;20063;-85
2023/07/16 07:44:15;;;;;;;4.85;2.30;;;;;;;;;;5072164;28;20078;-85
2023/07/16 07:46:40;;;;;;;4.28;2.50;;;;;;;;;;5073510;28;20029;-84
2023/07/16 07:49:05;;;;;;;3.42;2.38;;;;;;;;;;5073754;28;20034;-87
2023/07/16 07:51:31;;;;;;;3.55;2.53;;;;;;;;;;5072273;28;20364;-87
2023/07/16 07:53:56;;;;;;;8.20;2.92;;;;;;;;;;5105671;28;20151;-86
2023/07/16 07:56:21;;;;;;;4.82;2.15;;;;;;;;;;5073657;28;20476;-85
2023/07/16 07:58:47;;;;;;;3.45;2.30;;;;;;;;;;5072013;28;20479;-84
2023/07/16 08:01:12;;;;;;;7.47;2.83;;;;;;;;;;5072867;28;20021;-85
2023/07/16 08:03:38;;;;;;;7.85;2.42;;;;;;;;;;5073248;28;20042;-84
2023/07/16 08:06:03;;;;;;;5.40;2.60;;;;;;;;;;5073435;28;20064;-84
2023/07/16 08:08:28;;;;;;;4.47;2.40;;;;;;;;;;5072122;28;20032;-84
2023/07/16 08:10:56;;;;;;;4.53;2.30;;;;;;;;;;5055100;28;20039;-87
2023/07/16 08:13:21;;;;;;;7.85;2.70;;;;;;;;;;5073206;28;20039;-84
2023/07/16 08:15:47;;;;;;;9.27;3.25;;;;;;;;;;5089304;28;20032;-83
2023/07/16 08:18:13;;;;;;;7.15;3.15;;;;;;;;;;5073632;28;20047;-82
2023/07/16 08:20:40;;;;;;;6.47;2.88;;;;;;;;;;5072216;28;20041;-82
2023/07/16 08:23:06;;;;;;;9.90;3.35;;;;;;;;;;5071960;28;20476;-82
2023/07/16 08:25:31;;;;;;;6.70;2.72;;;;;;;;;;5072252;28;20028;-82
2023/07/16 08:27:56;;;;;;;4.05;2.42;;;;;;;;;;5073485;28;20056;-83
2023/07/16 08:30:22;;;;;;;5.35;3.03;;;;;;;;;;5055069;28;20475;-83
2023/07/16 08:32:47;;;;;;;6.10;2.97;;;;;;;;;;5071737;28;20063;-82
2023/07/16 08:35:16;;;;;;;5.47;2.47;;;;;;;;;;5071757;28;20032;-82
2023/07/16 08:37:42;;;;;;;4.30;2.30;;;;;;;;;;5089068;28;20032;-82
2023/07/16 08:40:09;;;;;;;3.85;2.30;;;;;;;;;;5054961;28;20562;-82
2023/07/16 08:42:37;;;;;;;5.20;2.70;;;;;;;;;;5105473;28;20056;-82
2023/07/16 08:45:05;;;;;;;4.45;2.45;;;;;;;;;;5071593;28;20036;-82
2023/07/16 08:47:30;;;;;;;4.50;2.63;;;;;;;;;;5055200;28;20483;-82
2023/07/16 08:49:56;;;;;;;4.75;2.35;;;;;;;;;;5071958;28;20119;-82
2023/07/16 08:52:22;;;;;;;5.93;2.80;;;;;;;;;;5071479;28;20060;-83
2023/07/16 08:54:47;;;;;;;3.17;2.22;;;;;;;;;;5071530;28;20057;-82
2023/07/16 08:57:14;;;;;;;4.35;2.60;;;;;;;;;;5073061;28;20151;-82
2023/07/16 08:59:40;;;;;;;4.38;2.47;;;;;;;;;;5072977;28;20103;-82
2023/07/16 09:02:06;;;;;;;5.13;2.55;;;;;;;;;;5071465;28;20472;-82
2023/07/16 09:04:32;;;;;;;6.68;2.80;;;;;;;;;;5071712;28;20035;-85
2023/07/16 09:06:58;;;;;;;5.15;2.80;;;;;;;;;;5087950;28;20248;-82
2023/07/16 09:09:23;;;;;;;3.83;2.53;;;;;;;;;;5072733;28;20126;-82
2023/07/16 09:11:48;;;;;;;3.38;2.10;;;;;;;;;;5071646;28;20024;-83
2023/07/16 09:14:18;;;;;;;4.15;2.33;;;;;;;;;;5071578;28;20394;-82
2023/07/16 09:16:53;;;;;;;3.80;2.30;;;;;;;;;;5074915;28;20383;-84
2023/07/16 09:19:18;;;;;;;6.38;2.50;;;;;;;;;;5074821;28;20028;-83
2023/07/16 09:21:51;;;;;;;2.83;2.30;;;;;;;;;;5058016;28;20119;-82
2023/07/16 09:24:17;;;;;;;4.30;2.50;;;;;;;;;;5076081;28;20074;-83
2023/07/16 09:26:53;;;;;;;4.07;2.30;;;;;;;;;;5075924;28;20029;-83
2023/07/16 09:29:19;;;;;;;5.43;2.90;;;;;;;;;;5074689;28;20103;-83
2023/07/16 09:31:59;;;;;;;3.85;2.53;;;;;;;;;;5074908;28;20104;-83
2023/07/16 09:34:27;;;;;;;3.97;2.40;;;;;;;;;;5074878;28;20421;-82
2023/07/16 09:36:52;;;;;;;4.28;2.33;;;;;;;;;;5057758;28;20044;-83
2023/07/16 09:39:19;;;;;;;3.80;2.47;;;;;;;;;;5058105;28;20032;-82
2023/07/16 09:41:48;;;;;;;4.30;2.28;;;;;;;;;;5075783;28;20024;-82
2023/07/16 09:44:14;;;;;;;5.35;2.72;;;;;;;;;;5092067;28;20115;-81
2023/07/16 09:46:40;;;;;;;2.80;2.33;;;;;;;;;;5075392;28;20058;-82
2023/07/16 09:49:07;;;;;;;3.53;2.50;;;;;;;;;;5074838;28;20418;-82
2023/07/16 09:51:35;;;;;;;4.30;2.30;;;;;;;;;;5074455;28;20067;-82
2023/07/16 09:54:04;;;;;;;3.22;2.63;;;;;;;;;;5075466;28;20040;-82
2023/07/16 09:56:51;;;;;;;3.42;2.35;;;;;;;;;;5057533;28;20024;-83
2023/07/16 09:59:19;;;;;;;6.05;2.70;;;;;;;;;;5074946;28;20101;-82
2023/07/16 10:01:45;;;;;;;9.13;3.05;;;;;;;;;;5070817;28;20363;-84
2023/07/16 10:04:20;;;;;;;6.05;3.20;;;;;;;;;;5096150;28;20054;-86
2023/07/16 10:07:04;;;;;;;7.68;3.00;;;;;;;;;;5095029;28;20471;-86
2023/07/16 10:09:42;;;;;;;5.75;2.78;;;;;;;;;;5077421;28;20478;-87
2023/07/16 10:12:15;;;;;;;6.68;2.47;;;;;;;;;;5094316;28;20020;-85
2023/07/16 10:14:47;;;;;;;6.85;2.50;;;;;;;;;;5096066;28;20028;-85
2023/07/16 10:17:19;;;;;;;5.18;2.58;;;;;;;;;;5095523;28;20573;-85
2023/07/16 10:19:59;;;;;;;4.82;2.92;;;;;;;;;;5094291;28;20032;-85
2023/07/16 10:22:51;;;;;;;3.70;2.40;;;;;;;;;;5096180;28;20050;-84
2023/07/16 10:25:19;;;;;;;6.63;2.50;;;;;;;;;;5089504;28;20071;-79
2023/07/16 10:27:51;;;;;;;3.28;2.50;;;;;;;;;;5096670;28;20463;-84
2023/07/16 10:30:16;;;;;;;4.80;2.50;;;;;;;;;;5095941;28;20043;-85
2023/07/16 10:32:42;;;;;;;5.75;2.35;;;;;;;;;;5095625;28;20036;-85
2023/07/16 10:35:09;;;;;;;7.10;2.80;;;;;;;;;;5094414;28;20032;-83
2023/07/16 10:37:35;;;;;;;5.32;2.35;;;;;;;;;;5076739;28;20062;-84
2023/07/16 10:40:01;;;;;;;5.72;2.67;;;;;;;;;;5093736;28;20063;-84
2023/07/16 10:42:27;;;;;;;7.30;2.50;;;;;;;;;;5093840;28;20020;-84
2023/07/16 10:44:55;;;;;;;3.22;2.50;;;;;;;;;;5093881;28;20063;-84
2023/07/16 10:47:52;;;;;;;6.30;2.72;;;;;;;;;;5093688;28;20459;-84
2023/07/16 10:50:19;;;;;;;4.10;2.28;;;;;;;;;;5085596;28;20048;-84
2023/07/16 10:52:44;;;;;;;5.07;2.50;;;;;;;;;;5076247;28;20024;-84
2023/07/16 10:55:10;;;;;;;3.75;2.20;;;;;;;;;;5093108;28;20150;-84
2023/07/16 10:57:35;;;;;;;6.25;2.30;;;;;;;;;;5094745;28;20386;-84
2023/07/16 11:00:01;;;;;;;6.38;2.30;;;;;;;;;;5093228;28;20267;-84
2023/07/16 11:02:27;;;;;;;3.13;2.42;;;;;;;;;;5093451;28;20020;-83
2023/07/16 11:04:57;;;;;;;3.83;2.30;;;;;;;;;;5094433;28;20101;-84
2023/07/16 11:07:22;;;;;;;3.80;2.40;;;;;;;;;;5093219;28;20111;-85
2023/07/16 11:09:50;;;;;;;4.38;2.50;;;;;;;;;;5093239;28;20104;-85
2023/07/16 11:12:19;;;;;;;4.40;2.60;;;;;;;;;;5093655;28;20107;-84
2023/07/16 11:14:52;;;;;;;6.72;2.92;;;;;;;;;;5094562;28;20024;-86
2023/07/16 11:17:17;;;;;;;6.18;3.10;;;;;;;;;;5095073;28;20030;-83
2023/07/16 11:19:47;;;;;;;6.80;3.00;;;;;;;;;;5095239;28;20114;-83
2023/07/16 11:22:13;;;;;;;5.30;2.83;;;;;;;;;;5094266;28;20407;-84
2023/07/16 11:24:43;;;;;;;4.95;2.65;;;;;;;;;;5077730;28;20073;-84
2023/07/16 11:27:26;;;;;;;5.05;2.60;;;;;;;;;;5094388;28;20027;-83
2023/07/16 11:29:53;;;;;;;4.72;2.47;;;;;;;;;;5093500;28;20024;-83
2023/07/16 11:32:35;;;;;;;6.28;2.55;;;;;;;;;;5093118;28;20051;-81
2023/07/16 11:35:02;;;;;;;3.67;2.20;;;;;;;;;;5093029;28;20020;-82
2023/07/16 11:37:29;;;;;;;7.45;2.80;;;;;;;;;;5076333;28;20065;-83
2023/07/16 11:39:56;;;;;;;2.78;2.00;;;;;;;;;;5095142;28;20474;-83
2023/07/16 11:42:32;;;;;;;3.13;2.15;;;;;;;;;;5076675;28;20027;-84
2023/07/16 11:44:58;;;;;;;4.65;2.50;;;;;;;;;;5094086;28;20024;-82
2023/07/16 11:47:23;;;;;;;4.35;2.70;;;;;;;;;;5093965;28;20028;-82
2023/07/16 11:49:49;;;;;;;3.97;2.38;;;;;;;;;;5092532;28;20115;-83
2023/07/16 11:52:19;;;;;;;5.13;2.35;;;;;;;;;;5075340;28;20075;-82
2023/07/16 11:54:44;;;;;;;3.35;2.13;;;;;;;;;;5092498;28;20070;-84
2023/07/16 11:57:10;;;;;;;7.97;2.50;;;;;;;;;;5092805;28;20538;-84
2023/07/16 11:59:35;;;;;;;4.18;2.38;;;;;;;;;;5092397;28;20055;-82
2023/07/16 12:02:01;;;;;;;3.67;1.95;;;;;;;;;;5075844;28;20467;-82
2023/07/16 12:04:27;;;;;;;4.65;2.35;;;;;;;;;;5075761;28;20028;-85
2023/07/16 12:06:52;;;;;;;3.33;2.28;;;;;;;;;;5092322;28;20104;-83
2023/07/16 12:09:17;;;;;;;4.70;2.10;;;;;;;;;;5093830;28;20461;-83
2023/07/16 12:11:43;;;;;;;5.72;2.30;;;;;;;;;;5092436;28;20032;-86
2023/07/16 12:14:08;;;;;;;5.60;2.20;;;;;;;;;;5092685;28;20391;-84
2023/07/16 12:16:34;;;;;;;6.82;2.50;;;;;;;;;;5092358;28;20062;-87
2023/07/16 12:19:00;;;;;;;4.68;2.13;;;;;;;;;;5092960;28;20024;-83
2023/07/16 12:21:25;;;;;;;3.15;1.80;;;;;;;;;;5094825;28;20040;-84
2023/07/16 12:23:50;;;;;;;4.25;2.60;;;;;;;;;;5093730;28;20153;-85
2023/07/16 12:26:21;;;;;;;2.63;1.80;;;;;;;;;;5093493;28;20055;-87
2023/07/16 12:28:47;;;;;;;4.90;2.00;;;;;;;;;;5093745;28;20032;-88
2023/07/16 12:31:12;;;;;;;2.70;1.77;;;;;;;;;;5092751;28;20368;-86
2023/07/16 12:33:38;;;;;;;12.65;3.58;;;;;;;;;;5092487;28;20032;-86
2023/07/16 12:36:03;;;;;;;14.63;3.67;;;;;;;;;;5096238;28;20051;-86
2023/07/16 12:38:29;;;;;;;14.32;4.10;;;;;;;;;;5092443;28;20032;-84
2023/07/16 12:40:54;;;;;;;13.38;3.53;;;;;;;;;;5093792;28;20037;-85
2023/07/16 12:43:19;;;;;;;12.18;3.22;;;;;;;;;;5092280;28;20081;-87
2023/07/16 12:45:45;;;;;;;4.88;2.50;;;;;;;;;;5093574;28;20467;-85
2023/07/16 12:48:10;;;;;;;4.78;2.25;;;;;;;;;;5092462;28;20024;-86
2023/07/16 12:50:35;;;;;;;4.38;2.20;;;;;;;;;;5097056;28;20482;-85
2023/07/16 12:53:01;;;;;;;7.40;2.50;;;;;;;;;;5079386;28;20065;-86
2023/07/16 12:55:26;;;;;;;6.93;2.33;;;;;;;;;;5079175;28;20059;-85
2023/07/16 12:57:51;;;;;;;5.35;2.00;;;;;;;;;;5096883;28;20116;-86
2023/07/16 13:00:17;;;;;;;2.13;1.73;;;;;;;;;;5098030;28;20034;-84
2023/07/16 13:02:42;;;;;;;5.72;2.00;;;;;;;;;;5095675;28;20036;-84
2023/07/16 13:05:08;;;;;;;2.92;1.73;;;;;;;;;;5112654;28;20036;-84
2023/07/16 13:07:33;;;;;;;3.55;1.88;;;;;;;;;;5097347;28;20515;-85
2023/07/16 13:09:59;;;;;;;3.17;1.73;;;;;;;;;;5096763;28;20055;-85
2023/07/16 13:12:24;;;;;;;2.13;1.58;;;;;;;;;;5098569;28;20020;-86
2023/07/16 13:14:49;;;;;;;4.75;1.90;;;;;;;;;;5098402;28;20038;-86
2023/07/16 13:17:16;;;;;;;2.42;1.65;;;;;;;;;;5096100;28;20024;-85
2023/07/16 13:19:41;;;;;;;3.72;1.70;;;;;;;;;;5096587;28;20077;-85
2023/07/16 13:22:07;;;;;;;4.15;1.80;;;;;;;;;;5096998;28;20028;-86
2023/07/16 13:24:32;;;;;;;3.13;1.67;;;;;;;;;;5098402;28;20023;-84
2023/07/16 13:26:58;;;;;;;4.95;1.95;;;;;;;;;;5097123;28;20462;-85
2023/07/16 13:29:23;;;;;;;2.67;1.77;;;;;;;;;;5098106;28;20118;-85
2023/07/16 13:31:48;;;;;;;2.35;1.65;;;;;;;;;;5100275;28;20032;-84
2023/07/16 13:34:14;;;;;;;4.18;1.70;;;;;;;;;;5098895;28;20027;-85
2023/07/16 13:36:39;;;;;;;3.65;1.65;;;;;;;;;;5079522;28;20025;-85
2023/07/16 13:39:05;;;;;;;3.88;1.48;;;;;;;;;;5074966;28;20063;-88
2023/07/16 13:41:34;;;;;;;3.00;1.33;;;;;;;;;;5075448;28;20094;-85
2023/07/16 13:44:00;;;;;;;3.35;1.30;;;;;;;;;;5059153;28;20038;-85
2023/07/16 13:46:25;;;;;;;3.72;1.83;;;;;;;;;;5074943;28;20028;-86
2023/07/16 13:48:50;;;;;;;2.80;1.40;;;;;;;;;;5076383;28;20471;-87
2023/07/16 13:51:16;;;;;;;3.42;1.25;;;;;;;;;;5075052;28;20032;-87
2023/07/16 13:53:41;;;;;;;4.50;1.48;;;;;;;;;;5076038;28;20047;-85
2023/07/16 13:56:08;;;;;;;2.35;1.35;;;;;;;;;;5075975;28;20052;-81
2023/07/16 13:58:33;;;;;;;2.10;1.10;;;;;;;;;;5074775;28;20111;-83
2023/07/16 14:00:59;;;;;;;1.55;1.15;;;;;;;;;;5074167;28;20093;-83
2023/07/16 14:03:24;;;;;;;2.05;1.25;;;;;;;;;;5074317;28;20024;-83
2023/07/16 14:05:50;;;;;;;1.27;1.17;;;;;;;;;;5075451;28;20429;-83
2023/07/16 14:08:15;;;;;;;2.42;1.23;;;;;;;;;;5075356;28;20028;-82
2023/07/16 14:10:40;;;;;;;3.53;1.40;;;;;;;;;;5075699;28;20059;-79
2023/07/16 14:13:06;;;;;;;2.03;1.25;;;;;;;;;;5075164;28;20028;-79
2023/07/16 14:15:31;;;;;;;2.08;1.08;;;;;;;;;;5075344;28;20040;-83
2023/07/16 14:17:56;;;;;;;2.95;1.27;;;;;;;;;;5074336;28;20029;-78
2023/07/16 14:20:22;;;;;;;2.08;1.20;;;;;;;;;;5073934;28;20475;-83
2023/07/16 14:22:47;;;;;;;2.75;1.30;;;;;;;;;;5074339;28;20082;-81
2023/07/16 14:25:13;;;;;;;2.38;1.50;;;;;;;;;;5074350;28;20020;-83
2023/07/16 14:27:38;;;;;;;4.43;1.42;;;;;;;;;;5084397;28;20033;-84
2023/07/16 14:30:08;;;;;;;4.78;1.65;;;;;;;;;;5090725;28;20031;-82
2023/07/16 14:32:34;;;;;;;3.13;1.30;;;;;;;;;;5073809;28;20035;-85
2023/07/16 14:35:00;;;;;;;3.38;1.70;;;;;;;;;;5080071;28;20028;-83
2023/07/16 14:37:26;;;;;;;3.10;1.30;;;;;;;;;;5089560;28;20051;-85
2023/07/16 14:39:51;;;;;;;1.65;1.10;;;;;;;;;;5089301;28;20031;-87